sensor_id;sensor_type;location;lat;lon;timestamp;P1;durP1;ratioP1;P2;durP2;ratioP2
66567;SDS011;53422;49.296;6.900;2023-06-14T00:00:38;5.65;;;3.95;;
66567;SDS011;53422;49.296;6.900;2023-06-14T00:03:07;6.30;;;3.85;;
66567;SDS011;53422;49.296;6.900;2023-06-14T00:05:36;6.95;;;4.68;;
66567;SDS011;53422;49.296;6.900;2023-06-14T00:08:08;6.68;;;3.88;;
66567;SDS011;53422;49.296;6.900;2023-06-14T00:10:34;9.82;;;3.50;;
66567;SDS011;53422;49.296;6.900;2023-06-14T00:13:03;7.63;;;3.97;;
66567;SDS011;53422;49.296;6.900;2023-06-14T00:15:30;6.30;;;3.90;;
66567;SDS011;53422;49.296;6.900;2023-06-14T00:17:56;5.90;;;4.05;;
66567;SDS011;53422;49.296;6.900;2023-06-14T00:20:25;5.35;;;3.80;;
66567;SDS011;53422;49.296;6.900;2023-06-14T00:22:52;6.05;;;4.07;;
66567;SDS011;53422;49.296;6.900;2023-06-14T00:25:17;5.95;;;4.30;;
66567;SDS011;53422;49.296;6.900;2023-06-14T00:27:43;5.78;;;4.28;;
66567;SDS011;53422;49.296;6.900;2023-06-14T00:30:11;6.18;;;4.10;;
66567;SDS011;53422;49.296;6.900;2023-06-14T00:32:40;6.78;;;4.40;;
66567;SDS011;53422;49.296;6.900;2023-06-14T00:35:08;7.93;;;4.57;;
66567;SDS011;53422;49.296;6.900;2023-06-14T00:37:34;4.93;;;3.60;;
66567;SDS011;53422;49.296;6.900;2023-06-14T00:40:00;5.72;;;3.97;;
66567;SDS011;53422;49.296;6.900;2023-06-14T00:42:26;4.82;;;3.97;;
66567;SDS011;53422;49.296;6.900;2023-06-14T00:44:52;6.25;;;3.88;;
66567;SDS011;53422;49.296;6.900;2023-06-14T00:47:19;6.85;;;4.10;;
66567;SDS011;53422;49.296;6.900;2023-06-14T00:49:45;6.40;;;4.10;;
66567;SDS011;53422;49.296;6.900;2023-06-14T00:52:18;6.95;;;3.80;;
66567;SDS011;53422;49.296;6.900;2023-06-14T00:54:44;5.45;;;3.90;;
66567;SDS011;53422;49.296;6.900;2023-06-14T00:57:10;5.88;;;4.00;;
66567;SDS011;53422;49.296;6.900;2023-06-14T00:59:46;5.80;;;4.18;;
66567;SDS011;53422;49.296;6.900;2023-06-14T01:02:17;8.30;;;3.65;;
66567;SDS011;53422;49.296;6.900;2023-06-14T01:04:45;5.22;;;4.30;;
66567;SDS011;53422;49.296;6.900;2023-06-14T01:12:24;6.30;;;3.58;;
66567;SDS011;53422;49.296;6.900;2023-06-14T01:15:00;6.25;;;4.15;;
66567;SDS011;53422;49.296;6.900;2023-06-14T01:17:27;5.68;;;3.97;;
66567;SDS011;53422;49.296;6.900;2023-06-14T01:20:03;5.47;;;3.95;;
66567;SDS011;53422;49.296;6.900;2023-06-14T01:22:34;5.22;;;3.72;;
66567;SDS011;53422;49.296;6.900;2023-06-14T01:25:03;7.45;;;4.03;;
66567;SDS011;53422;49.296;6.900;2023-06-14T01:27:29;6.82;;;4.50;;
66567;SDS011;53422;49.296;6.900;2023-06-14T01:29:57;7.03;;;3.58;;
66567;SDS011;53422;49.296;6.900;2023-06-14T01:32:24;5.03;;;3.45;;
66567;SDS011;53422;49.296;6.900;2023-06-14T01:34:52;6.07;;;3.80;;
66567;SDS011;53422;49.296;6.900;2023-06-14T01:37:17;4.85;;;4.00;;
66567;SDS011;53422;49.296;6.900;2023-06-14T01:39:45;6.07;;;3.90;;
66567;SDS011;53422;49.296;6.900;2023-06-14T01:42:12;5.90;;;3.90;;
66567;SDS011;53422;49.296;6.900;2023-06-14T01:44:39;8.13;;;4.45;;
66567;SDS011;53422;49.296;6.900;2023-06-14T01:47:06;6.40;;;4.03;;
66567;SDS011;53422;49.296;6.900;2023-06-14T01:49:33;7.97;;;6.30;;
66567;SDS011;53422;49.296;6.900;2023-06-14T01:51:59;5.03;;;3.72;;
66567;SDS011;53422;49.296;6.900;2023-06-14T01:54:25;5.53;;;3.95;;
66567;SDS011;53422;49.296;6.900;2023-06-14T01:56:52;6.68;;;4.70;;
66567;SDS011;53422;49.296;6.900;2023-06-14T01:59:18;6.30;;;3.80;;
66567;SDS011;53422;49.296;6.900;2023-06-14T02:01:43;5.53;;;4.07;;
66567;SDS011;53422;49.296;6.900;2023-06-14T02:04:11;5.70;;;4.40;;
66567;SDS011;53422;49.296;6.900;2023-06-14T02:06:37;6.78;;;4.13;;
66567;SDS011;53422;49.296;6.900;2023-06-14T02:09:03;5.15;;;3.90;;
66567;SDS011;53422;49.296;6.900;2023-06-14T02:11:29;7.13;;;4.65;;
66567;SDS011;53422;49.296;6.900;2023-06-14T02:13:54;10.13;;;4.45;;
66567;SDS011;53422;49.296;6.900;2023-06-14T02:16:24;6.05;;;4.28;;
66567;SDS011;53422;49.296;6.900;2023-06-14T02:18:55;5.63;;;3.72;;
66567;SDS011;53422;49.296;6.900;2023-06-14T02:21:21;6.07;;;3.67;;
66567;SDS011;53422;49.296;6.900;2023-06-14T02:23:47;5.28;;;3.50;;
66567;SDS011;53422;49.296;6.900;2023-06-14T02:26:13;6.53;;;4.03;;
66567;SDS011;53422;49.296;6.900;2023-06-14T02:28:38;6.32;;;4.38;;
66567;SDS011;53422;49.296;6.900;2023-06-14T02:31:04;5.93;;;4.22;;
66567;SDS011;53422;49.296;6.900;2023-06-14T02:33:29;7.65;;;4.57;;
66567;SDS011;53422;49.296;6.900;2023-06-14T02:35:55;7.32;;;4.68;;
66567;SDS011;53422;49.296;6.900;2023-06-14T02:38:21;5.80;;;4.05;;
66567;SDS011;53422;49.296;6.900;2023-06-14T02:40:46;7.13;;;4.65;;
66567;SDS011;53422;49.296;6.900;2023-06-14T02:43:12;7.28;;;3.92;;
66567;SDS011;53422;49.296;6.900;2023-06-14T02:45:37;7.63;;;4.55;;
66567;SDS011;53422;49.296;6.900;2023-06-14T02:48:03;5.78;;;4.40;;
66567;SDS011;53422;49.296;6.900;2023-06-14T02:50:29;7.28;;;4.97;;
66567;SDS011;53422;49.296;6.900;2023-06-14T02:52:55;30.92;;;5.63;;
66567;SDS011;53422;49.296;6.900;2023-06-14T02:55:22;6.47;;;3.85;;
66567;SDS011;53422;49.296;6.900;2023-06-14T02:57:47;5.72;;;3.90;;
66567;SDS011;53422;49.296;6.900;2023-06-14T03:00:13;7.07;;;4.65;;
66567;SDS011;53422;49.296;6.900;2023-06-14T03:02:39;8.38;;;4.70;;
66567;SDS011;53422;49.296;6.900;2023-06-14T03:05:04;6.47;;;4.13;;
66567;SDS011;53422;49.296;6.900;2023-06-14T03:07:32;6.63;;;4.70;;
66567;SDS011;53422;49.296;6.900;2023-06-14T03:09:57;6.45;;;4.55;;
66567;SDS011;53422;49.296;6.900;2023-06-14T03:12:23;6.53;;;4.43;;
66567;SDS011;53422;49.296;6.900;2023-06-14T03:14:49;6.25;;;3.95;;
66567;SDS011;53422;49.296;6.900;2023-06-14T03:17:15;7.03;;;4.47;;
66567;SDS011;53422;49.296;6.900;2023-06-14T03:19:42;5.30;;;3.25;;
66567;SDS011;53422;49.296;6.900;2023-06-14T03:22:08;5.88;;;3.78;;
66567;SDS011;53422;49.296;6.900;2023-06-14T03:24:34;5.97;;;4.22;;
66567;SDS011;53422;49.296;6.900;2023-06-14T03:27:01;7.72;;;4.30;;
66567;SDS011;53422;49.296;6.900;2023-06-14T03:29:27;7.50;;;5.20;;
66567;SDS011;53422;49.296;6.900;2023-06-14T03:32:02;5.85;;;4.18;;
66567;SDS011;53422;49.296;6.900;2023-06-14T03:34:31;6.25;;;4.78;;
66567;SDS011;53422;49.296;6.900;2023-06-14T03:36:56;7.30;;;4.28;;
66567;SDS011;53422;49.296;6.900;2023-06-14T03:39:22;7.75;;;4.50;;
66567;SDS011;53422;49.296;6.900;2023-06-14T03:41:48;7.07;;;4.38;;
66567;SDS011;53422;49.296;6.900;2023-06-14T03:44:15;6.72;;;4.25;;
66567;SDS011;53422;49.296;6.900;2023-06-14T03:46:45;5.47;;;4.15;;
66567;SDS011;53422;49.296;6.900;2023-06-14T03:49:11;5.70;;;3.95;;
66567;SDS011;53422;49.296;6.900;2023-06-14T03:51:37;6.43;;;4.40;;
66567;SDS011;53422;49.296;6.900;2023-06-14T03:54:04;8.07;;;4.63;;
66567;SDS011;53422;49.296;6.900;2023-06-14T03:56:31;6.13;;;4.57;;
66567;SDS011;53422;49.296;6.900;2023-06-14T03:58:59;6.95;;;4.40;;
66567;SDS011;53422;49.296;6.900;2023-06-14T04:01:25;7.15;;;4.93;;
66567;SDS011;53422;49.296;6.900;2023-06-14T04:03:54;6.13;;;4.30;;
66567;SDS011;53422;49.296;6.900;2023-06-14T04:06:21;6.32;;;3.85;;
66567;SDS011;53422;49.296;6.900;2023-06-14T04:08:50;6.50;;;4.75;;
66567;SDS011;53422;49.296;6.900;2023-06-14T04:11:17;6.13;;;4.38;;
66567;SDS011;53422;49.296;6.900;2023-06-14T04:13:42;8.00;;;4.40;;
66567;SDS011;53422;49.296;6.900;2023-06-14T04:16:09;5.85;;;4.45;;
66567;SDS011;53422;49.296;6.900;2023-06-14T04:18:35;5.55;;;4.05;;
66567;SDS011;53422;49.296;6.900;2023-06-14T04:21:00;6.25;;;4.63;;
66567;SDS011;53422;49.296;6.900;2023-06-14T04:23:26;5.85;;;4.03;;
66567;SDS011;53422;49.296;6.900;2023-06-14T04:25:53;7.72;;;3.53;;
66567;SDS011;53422;49.296;6.900;2023-06-14T04:28:18;7.72;;;4.75;;
66567;SDS011;53422;49.296;6.900;2023-06-14T04:30:44;6.63;;;3.95;;
66567;SDS011;53422;49.296;6.900;2023-06-14T04:33:12;6.65;;;4.85;;
66567;SDS011;53422;49.296;6.900;2023-06-14T04:35:38;6.00;;;4.25;;
66567;SDS011;53422;49.296;6.900;2023-06-14T04:38:05;7.15;;;4.32;;
66567;SDS011;53422;49.296;6.900;2023-06-14T04:40:34;6.85;;;4.25;;
66567;SDS011;53422;49.296;6.900;2023-06-14T04:43:01;6.07;;;4.43;;
66567;SDS011;53422;49.296;6.900;2023-06-14T04:45:31;6.15;;;3.83;;
66567;SDS011;53422;49.296;6.900;2023-06-14T04:47:58;7.65;;;4.35;;
66567;SDS011;53422;49.296;6.900;2023-06-14T04:50:24;6.78;;;4.20;;
66567;SDS011;53422;49.296;6.900;2023-06-14T04:52:50;7.82;;;4.28;;
66567;SDS011;53422;49.296;6.900;2023-06-14T04:55:18;6.78;;;4.35;;
66567;SDS011;53422;49.296;6.900;2023-06-14T04:57:44;7.00;;;4.47;;
66567;SDS011;53422;49.296;6.900;2023-06-14T05:00:11;10.30;;;4.90;;
66567;SDS011;53422;49.296;6.900;2023-06-14T05:02:37;7.75;;;4.20;;
66567;SDS011;53422;49.296;6.900;2023-06-14T05:05:03;6.43;;;4.10;;
66567;SDS011;53422;49.296;6.900;2023-06-14T05:07:33;6.47;;;3.90;;
66567;SDS011;53422;49.296;6.900;2023-06-14T05:09:59;6.43;;;4.00;;
66567;SDS011;53422;49.296;6.900;2023-06-14T05:12:25;6.97;;;4.25;;
66567;SDS011;53422;49.296;6.900;2023-06-14T05:14:51;7.10;;;4.05;;
66567;SDS011;53422;49.296;6.900;2023-06-14T05:17:16;8.05;;;4.68;;
66567;SDS011;53422;49.296;6.900;2023-06-14T05:19:42;7.97;;;4.85;;
66567;SDS011;53422;49.296;6.900;2023-06-14T05:22:08;7.95;;;4.90;;
66567;SDS011;53422;49.296;6.900;2023-06-14T05:24:34;5.95;;;4.00;;
66567;SDS011;53422;49.296;6.900;2023-06-14T05:27:00;8.23;;;4.30;;
66567;SDS011;53422;49.296;6.900;2023-06-14T05:29:26;6.63;;;3.88;;
66567;SDS011;53422;49.296;6.900;2023-06-14T05:31:52;8.10;;;4.50;;
66567;SDS011;53422;49.296;6.900;2023-06-14T05:34:18;6.53;;;4.50;;
66567;SDS011;53422;49.296;6.900;2023-06-14T05:36:44;6.10;;;3.47;;
66567;SDS011;53422;49.296;6.900;2023-06-14T05:39:09;8.40;;;3.70;;
66567;SDS011;53422;49.296;6.900;2023-06-14T05:41:35;5.75;;;4.13;;
66567;SDS011;53422;49.296;6.900;2023-06-14T05:44:01;6.55;;;4.13;;
66567;SDS011;53422;49.296;6.900;2023-06-14T05:46:29;5.40;;;4.13;;
66567;SDS011;53422;49.296;6.900;2023-06-14T05:48:57;8.18;;;3.75;;
66567;SDS011;53422;49.296;6.900;2023-06-14T05:51:23;5.80;;;3.90;;
66567;SDS011;53422;49.296;6.900;2023-06-14T05:53:52;6.28;;;4.35;;
66567;SDS011;53422;49.296;6.900;2023-06-14T05:56:17;8.05;;;3.60;;
66567;SDS011;53422;49.296;6.900;2023-06-14T05:58:44;5.25;;;4.30;;
66567;SDS011;53422;49.296;6.900;2023-06-14T06:01:10;5.70;;;3.92;;
66567;SDS011;53422;49.296;6.900;2023-06-14T06:03:36;6.90;;;3.90;;
66567;SDS011;53422;49.296;6.900;2023-06-14T06:06:02;6.30;;;4.40;;
66567;SDS011;53422;49.296;6.900;2023-06-14T06:08:28;6.28;;;4.55;;
66567;SDS011;53422;49.296;6.900;2023-06-14T06:10:54;5.43;;;3.85;;
66567;SDS011;53422;49.296;6.900;2023-06-14T06:13:19;6.60;;;3.78;;
66567;SDS011;53422;49.296;6.900;2023-06-14T06:15:45;5.40;;;3.55;;
66567;SDS011;53422;49.296;6.900;2023-06-14T06:18:11;5.70;;;3.08;;
66567;SDS011;53422;49.296;6.900;2023-06-14T06:20:37;6.50;;;3.88;;
66567;SDS011;53422;49.296;6.900;2023-06-14T06:23:02;6.00;;;4.00;;
66567;SDS011;53422;49.296;6.900;2023-06-14T06:25:28;6.57;;;4.25;;
66567;SDS011;53422;49.296;6.900;2023-06-14T06:27:56;4.97;;;3.47;;
66567;SDS011;53422;49.296;6.900;2023-06-14T06:30:23;4.65;;;3.75;;
66567;SDS011;53422;49.296;6.900;2023-06-14T06:32:49;7.82;;;4.75;;
66567;SDS011;53422;49.296;6.900;2023-06-14T06:35:15;10.43;;;4.20;;
66567;SDS011;53422;49.296;6.900;2023-06-14T06:37:41;6.88;;;4.25;;
66567;SDS011;53422;49.296;6.900;2023-06-14T06:40:07;5.40;;;3.72;;
66567;SDS011;53422;49.296;6.900;2023-06-14T06:42:33;5.88;;;3.97;;
66567;SDS011;53422;49.296;6.900;2023-06-14T06:44:59;6.32;;;4.40;;
66567;SDS011;53422;49.296;6.900;2023-06-14T06:47:26;6.38;;;4.03;;
66567;SDS011;53422;49.296;6.900;2023-06-14T06:49:52;8.25;;;4.07;;
66567;SDS011;53422;49.296;6.900;2023-06-14T06:52:18;6.75;;;4.03;;
66567;SDS011;53422;49.296;6.900;2023-06-14T06:54:43;4.97;;;3.42;;
66567;SDS011;53422;49.296;6.900;2023-06-14T06:57:09;9.18;;;4.20;;
66567;SDS011;53422;49.296;6.900;2023-06-14T06:59:35;5.68;;;4.70;;
66567;SDS011;53422;49.296;6.900;2023-06-14T07:02:02;6.82;;;3.30;;
66567;SDS011;53422;49.296;6.900;2023-06-14T07:04:28;6.43;;;3.38;;
66567;SDS011;53422;49.296;6.900;2023-06-14T07:06:53;7.95;;;4.15;;
66567;SDS011;53422;49.296;6.900;2023-06-14T07:09:19;5.38;;;3.95;;
66567;SDS011;53422;49.296;6.900;2023-06-14T07:11:46;9.50;;;4.47;;
66567;SDS011;53422;49.296;6.900;2023-06-14T07:14:13;5.20;;;3.83;;
66567;SDS011;53422;49.296;6.900;2023-06-14T07:16:39;8.13;;;3.90;;
66567;SDS011;53422;49.296;6.900;2023-06-14T07:19:06;6.00;;;3.63;;
66567;SDS011;53422;49.296;6.900;2023-06-14T07:21:31;5.32;;;3.92;;
66567;SDS011;53422;49.296;6.900;2023-06-14T07:23:57;4.70;;;3.28;;
66567;SDS011;53422;49.296;6.900;2023-06-14T07:26:23;8.98;;;3.90;;
66567;SDS011;53422;49.296;6.900;2023-06-14T07:28:48;10.25;;;3.80;;
66567;SDS011;53422;49.296;6.900;2023-06-14T07:31:14;8.02;;;3.67;;
66567;SDS011;53422;49.296;6.900;2023-06-14T07:33:41;4.95;;;3.45;;
66567;SDS011;53422;49.296;6.900;2023-06-14T07:36:07;5.22;;;4.00;;
66567;SDS011;53422;49.296;6.900;2023-06-14T07:38:33;5.10;;;3.83;;
66567;SDS011;53422;49.296;6.900;2023-06-14T07:40:59;6.30;;;4.10;;
66567;SDS011;53422;49.296;6.900;2023-06-14T07:43:25;8.40;;;3.92;;
66567;SDS011;53422;49.296;6.900;2023-06-14T07:45:50;8.43;;;3.88;;
66567;SDS011;53422;49.296;6.900;2023-06-14T07:48:16;6.78;;;4.15;;
66567;SDS011;53422;49.296;6.900;2023-06-14T07:50:42;5.28;;;3.15;;
66567;SDS011;53422;49.296;6.900;2023-06-14T07:53:08;5.20;;;3.97;;
66567;SDS011;53422;49.296;6.900;2023-06-14T07:55:33;5.30;;;3.90;;
66567;SDS011;53422;49.296;6.900;2023-06-14T07:58:02;6.53;;;4.13;;
66567;SDS011;53422;49.296;6.900;2023-06-14T08:00:36;4.70;;;3.58;;
66567;SDS011;53422;49.296;6.900;2023-06-14T08:03:02;6.28;;;4.18;;
66567;SDS011;53422;49.296;6.900;2023-06-14T08:05:29;7.22;;;3.90;;
66567;SDS011;53422;49.296;6.900;2023-06-14T08:07:54;5.40;;;3.40;;
66567;SDS011;53422;49.296;6.900;2023-06-14T08:10:20;6.25;;;3.42;;
66567;SDS011;53422;49.296;6.900;2023-06-14T08:12:47;5.75;;;3.63;;
66567;SDS011;53422;49.296;6.900;2023-06-14T08:15:15;5.18;;;3.33;;
66567;SDS011;53422;49.296;6.900;2023-06-14T08:17:42;8.27;;;4.38;;
66567;SDS011;53422;49.296;6.900;2023-06-14T08:20:08;5.50;;;3.20;;
66567;SDS011;53422;49.296;6.900;2023-06-14T08:22:35;10.07;;;3.75;;
66567;SDS011;53422;49.296;6.900;2023-06-14T08:25:02;7.65;;;3.70;;
66567;SDS011;53422;49.296;6.900;2023-06-14T08:27:28;6.13;;;4.32;;
66567;SDS011;53422;49.296;6.900;2023-06-14T08:29:54;7.57;;;3.88;;
66567;SDS011;53422;49.296;6.900;2023-06-14T08:32:20;5.60;;;3.78;;
66567;SDS011;53422;49.296;6.900;2023-06-14T08:34:45;6.47;;;3.97;;
66567;SDS011;53422;49.296;6.900;2023-06-14T08:37:11;6.75;;;3.83;;
66567;SDS011;53422;49.296;6.900;2023-06-14T08:39:37;6.43;;;3.83;;
66567;SDS011;53422;49.296;6.900;2023-06-14T08:42:03;6.57;;;3.97;;
66567;SDS011;53422;49.296;6.900;2023-06-14T08:44:31;4.40;;;3.25;;
66567;SDS011;53422;49.296;6.900;2023-06-14T08:46:57;6.88;;;3.75;;
66567;SDS011;53422;49.296;6.900;2023-06-14T08:49:25;7.25;;;3.92;;
66567;SDS011;53422;49.296;6.900;2023-06-14T08:51:57;5.07;;;3.72;;
66567;SDS011;53422;49.296;6.900;2023-06-14T08:54:24;5.28;;;4.00;;
66567;SDS011;53422;49.296;6.900;2023-06-14T08:56:55;5.82;;;3.65;;
66567;SDS011;53422;49.296;6.900;2023-06-14T08:59:28;6.10;;;3.65;;
66567;SDS011;53422;49.296;6.900;2023-06-14T09:01:56;5.55;;;3.70;;
66567;SDS011;53422;49.296;6.900;2023-06-14T09:04:25;6.72;;;3.47;;
66567;SDS011;53422;49.296;6.900;2023-06-14T09:06:54;5.63;;;4.20;;
66567;SDS011;53422;49.296;6.900;2023-06-14T09:09:20;5.30;;;4.15;;
66567;SDS011;53422;49.296;6.900;2023-06-14T09:11:47;7.80;;;3.85;;
66567;SDS011;53422;49.296;6.900;2023-06-14T09:14:14;6.43;;;3.38;;
66567;SDS011;53422;49.296;6.900;2023-06-14T09:16:40;5.88;;;3.65;;
66567;SDS011;53422;49.296;6.900;2023-06-14T09:19:06;5.72;;;3.83;;
66567;SDS011;53422;49.296;6.900;2023-06-14T09:21:33;6.80;;;3.72;;
66567;SDS011;53422;49.296;6.900;2023-06-14T09:23:59;4.50;;;3.95;;
66567;SDS011;53422;49.296;6.900;2023-06-14T09:26:25;5.43;;;3.35;;
66567;SDS011;53422;49.296;6.900;2023-06-14T09:28:52;5.30;;;4.18;;
66567;SDS011;53422;49.296;6.900;2023-06-14T09:31:18;3.92;;;3.10;;
66567;SDS011;53422;49.296;6.900;2023-06-14T09:33:45;4.47;;;3.72;;
66567;SDS011;53422;49.296;6.900;2023-06-14T09:36:15;7.25;;;3.50;;
66567;SDS011;53422;49.296;6.900;2023-06-14T09:38:43;5.88;;;3.58;;
66567;SDS011;53422;49.296;6.900;2023-06-14T09:41:20;6.53;;;4.13;;
66567;SDS011;53422;49.296;6.900;2023-06-14T09:43:56;5.78;;;3.78;;
66567;SDS011;53422;49.296;6.900;2023-06-14T09:46:25;9.05;;;4.20;;
66567;SDS011;53422;49.296;6.900;2023-06-14T09:48:52;7.75;;;3.30;;
66567;SDS011;53422;49.296;6.900;2023-06-14T09:51:18;6.22;;;3.70;;
66567;SDS011;53422;49.296;6.900;2023-06-14T09:53:46;5.85;;;3.55;;
66567;SDS011;53422;49.296;6.900;2023-06-14T09:56:16;6.60;;;4.20;;
66567;SDS011;53422;49.296;6.900;2023-06-14T09:59:09;8.35;;;4.35;;
66567;SDS011;53422;49.296;6.900;2023-06-14T10:01:35;5.72;;;3.70;;
66567;SDS011;53422;49.296;6.900;2023-06-14T10:04:05;6.57;;;3.35;;
66567;SDS011;53422;49.296;6.900;2023-06-14T10:06:36;6.10;;;3.70;;
66567;SDS011;53422;49.296;6.900;2023-06-14T10:09:03;5.07;;;3.20;;
66567;SDS011;53422;49.296;6.900;2023-06-14T10:11:33;8.00;;;3.78;;
66567;SDS011;53422;49.296;6.900;2023-06-14T10:14:00;4.40;;;3.35;;
66567;SDS011;53422;49.296;6.900;2023-06-14T10:16:31;6.32;;;3.55;;
66567;SDS011;53422;49.296;6.900;2023-06-14T10:19:20;6.53;;;3.75;;
66567;SDS011;53422;49.296;6.900;2023-06-14T10:22:04;5.97;;;3.10;;
66567;SDS011;53422;49.296;6.900;2023-06-14T10:24:41;4.63;;;3.50;;
66567;SDS011;53422;49.296;6.900;2023-06-14T10:27:08;4.20;;;2.95;;
66567;SDS011;53422;49.296;6.900;2023-06-14T10:32:26;6.85;;;3.47;;
66567;SDS011;53422;49.296;6.900;2023-06-14T10:37:25;6.40;;;3.90;;
66567;SDS011;53422;49.296;6.900;2023-06-14T10:39:50;5.72;;;2.53;;
66567;SDS011;53422;49.296;6.900;2023-06-14T10:42:16;4.32;;;3.22;;
66567;SDS011;53422;49.296;6.900;2023-06-14T10:44:45;5.75;;;3.85;;
66567;SDS011;53422;49.296;6.900;2023-06-14T10:49:49;4.93;;;3.22;;
66567;SDS011;53422;49.296;6.900;2023-06-14T10:52:22;4.75;;;3.20;;
66567;SDS011;53422;49.296;6.900;2023-06-14T10:55:00;5.30;;;3.15;;
66567;SDS011;53422;49.296;6.900;2023-06-14T10:57:29;5.85;;;3.67;;
66567;SDS011;53422;49.296;6.900;2023-06-14T10:59:57;4.95;;;3.03;;
66567;SDS011;53422;49.296;6.900;2023-06-14T11:05:18;4.75;;;3.17;;
66567;SDS011;53422;49.296;6.900;2023-06-14T11:10:40;5.15;;;3.70;;
66567;SDS011;53422;49.296;6.900;2023-06-14T11:13:06;7.30;;;3.10;;
66567;SDS011;53422;49.296;6.900;2023-06-14T11:15:33;7.22;;;3.28;;
66567;SDS011;53422;49.296;6.900;2023-06-14T11:18:00;5.20;;;3.28;;
66567;SDS011;53422;49.296;6.900;2023-06-14T11:20:29;6.72;;;3.67;;
66567;SDS011;53422;49.296;6.900;2023-06-14T11:22:59;5.15;;;3.05;;
66567;SDS011;53422;49.296;6.900;2023-06-14T11:25:25;6.72;;;3.22;;
66567;SDS011;53422;49.296;6.900;2023-06-14T11:27:53;6.60;;;2.88;;
66567;SDS011;53422;49.296;6.900;2023-06-14T11:30:20;8.70;;;3.75;;
66567;SDS011;53422;49.296;6.900;2023-06-14T11:32:49;6.70;;;3.00;;
66567;SDS011;53422;49.296;6.900;2023-06-14T11:35:17;8.23;;;3.47;;
66567;SDS011;53422;49.296;6.900;2023-06-14T11:37:43;6.75;;;3.70;;
66567;SDS011;53422;49.296;6.900;2023-06-14T11:40:12;5.70;;;3.30;;
66567;SDS011;53422;49.296;6.900;2023-06-14T11:42:39;4.65;;;2.78;;
66567;SDS011;53422;49.296;6.900;2023-06-14T11:45:09;4.45;;;3.03;;
66567;SDS011;53422;49.296;6.900;2023-06-14T11:47:37;3.85;;;3.22;;
66567;SDS011;53422;49.296;6.900;2023-06-14T11:50:04;5.55;;;3.75;;
66567;SDS011;53422;49.296;6.900;2023-06-14T11:52:31;3.83;;;3.33;;
66567;SDS011;53422;49.296;6.900;2023-06-14T11:54:57;5.00;;;3.50;;
66567;SDS011;53422;49.296;6.900;2023-06-14T11:57:26;6.88;;;2.85;;
66567;SDS011;53422;49.296;6.900;2023-06-14T11:59:51;6.88;;;2.85;;
66567;SDS011;53422;49.296;6.900;2023-06-14T12:02:21;4.57;;;3.10;;
66567;SDS011;53422;49.296;6.900;2023-06-14T12:04:47;4.28;;;3.00;;
66567;SDS011;53422;49.296;6.900;2023-06-14T12:07:16;4.50;;;2.55;;
66567;SDS011;53422;49.296;6.900;2023-06-14T12:12:22;5.57;;;3.63;;
66567;SDS011;53422;49.296;6.900;2023-06-14T12:14:51;4.45;;;2.78;;
66567;SDS011;53422;49.296;6.900;2023-06-14T12:17:18;8.50;;;3.67;;
66567;SDS011;53422;49.296;6.900;2023-06-14T12:19:45;4.03;;;3.53;;
66567;SDS011;53422;49.296;6.900;2023-06-14T12:22:14;7.93;;;3.17;;
66567;SDS011;53422;49.296;6.900;2023-06-14T12:24:42;7.78;;;3.42;;
66567;SDS011;53422;49.296;6.900;2023-06-14T12:27:11;7.30;;;2.88;;
66567;SDS011;53422;49.296;6.900;2023-06-14T12:29:40;6.90;;;3.60;;
66567;SDS011;53422;49.296;6.900;2023-06-14T12:32:08;5.68;;;2.90;;
66567;SDS011;53422;49.296;6.900;2023-06-14T12:34:34;3.55;;;2.70;;
66567;SDS011;53422;49.296;6.900;2023-06-14T12:37:00;5.57;;;2.90;;
66567;SDS011;53422;49.296;6.900;2023-06-14T12:39:28;5.65;;;2.90;;
66567;SDS011;53422;49.296;6.900;2023-06-14T12:41:55;5.55;;;3.20;;
66567;SDS011;53422;49.296;6.900;2023-06-14T12:44:20;5.63;;;3.20;;
66567;SDS011;53422;49.296;6.900;2023-06-14T12:46:46;3.30;;;2.65;;
66567;SDS011;53422;49.296;6.900;2023-06-14T12:49:12;6.03;;;3.10;;
66567;SDS011;53422;49.296;6.900;2023-06-14T12:51:38;7.05;;;2.78;;
66567;SDS011;53422;49.296;6.900;2023-06-14T12:54:04;4.18;;;2.95;;
66567;SDS011;53422;49.296;6.900;2023-06-14T12:56:30;4.20;;;2.90;;
66567;SDS011;53422;49.296;6.900;2023-06-14T12:58:56;5.07;;;3.65;;
66567;SDS011;53422;49.296;6.900;2023-06-14T13:01:21;8.57;;;2.80;;
66567;SDS011;53422;49.296;6.900;2023-06-14T13:03:47;5.72;;;3.03;;
66567;SDS011;53422;49.296;6.900;2023-06-14T13:06:13;5.03;;;3.10;;
66567;SDS011;53422;49.296;6.900;2023-06-14T13:08:39;4.00;;;2.90;;
66567;SDS011;53422;49.296;6.900;2023-06-14T13:11:04;4.13;;;2.65;;
66567;SDS011;53422;49.296;6.900;2023-06-14T13:13:30;4.65;;;3.13;;
66567;SDS011;53422;49.296;6.900;2023-06-14T13:15:56;5.53;;;3.42;;
66567;SDS011;53422;49.296;6.900;2023-06-14T13:18:21;3.80;;;2.42;;
66567;SDS011;53422;49.296;6.900;2023-06-14T13:20:47;4.07;;;2.80;;
66567;SDS011;53422;49.296;6.900;2023-06-14T13:23:13;4.25;;;2.67;;
66567;SDS011;53422;49.296;6.900;2023-06-14T13:25:39;5.28;;;3.13;;
66567;SDS011;53422;49.296;6.900;2023-06-14T13:28:05;4.20;;;2.85;;
66567;SDS011;53422;49.296;6.900;2023-06-14T13:30:31;3.15;;;2.13;;
66567;SDS011;53422;49.296;6.900;2023-06-14T13:32:57;4.88;;;2.47;;
66567;SDS011;53422;49.296;6.900;2023-06-14T13:35:23;3.53;;;2.50;;
66567;SDS011;53422;49.296;6.900;2023-06-14T13:37:49;5.60;;;2.80;;
66567;SDS011;53422;49.296;6.900;2023-06-14T13:40:15;3.65;;;2.50;;
66567;SDS011;53422;49.296;6.900;2023-06-14T13:42:41;6.40;;;2.95;;
66567;SDS011;53422;49.296;6.900;2023-06-14T13:45:07;4.88;;;2.75;;
66567;SDS011;53422;49.296;6.900;2023-06-14T13:47:36;4.72;;;3.00;;
66567;SDS011;53422;49.296;6.900;2023-06-14T13:50:02;3.75;;;2.65;;
66567;SDS011;53422;49.296;6.900;2023-06-14T13:52:29;4.30;;;2.67;;
66567;SDS011;53422;49.296;6.900;2023-06-14T13:54:54;4.18;;;2.80;;
66567;SDS011;53422;49.296;6.900;2023-06-14T13:57:20;3.95;;;2.42;;
66567;SDS011;53422;49.296;6.900;2023-06-14T13:59:46;5.22;;;2.85;;
66567;SDS011;53422;49.296;6.900;2023-06-14T14:02:12;3.25;;;1.65;;
66567;SDS011;53422;49.296;6.900;2023-06-14T14:04:38;4.28;;;2.92;;
66567;SDS011;53422;49.296;6.900;2023-06-14T14:07:04;5.43;;;2.92;;
66567;SDS011;53422;49.296;6.900;2023-06-14T14:09:34;3.95;;;2.40;;
66567;SDS011;53422;49.296;6.900;2023-06-14T14:12:00;6.05;;;2.53;;
66567;SDS011;53422;49.296;6.900;2023-06-14T14:14:27;4.70;;;3.28;;
66567;SDS011;53422;49.296;6.900;2023-06-14T14:16:53;4.78;;;2.95;;
66567;SDS011;53422;49.296;6.900;2023-06-14T14:19:22;5.82;;;2.58;;
66567;SDS011;53422;49.296;6.900;2023-06-14T14:21:48;6.13;;;2.25;;
66567;SDS011;53422;49.296;6.900;2023-06-14T14:24:14;4.40;;;2.55;;
66567;SDS011;53422;49.296;6.900;2023-06-14T14:26:42;5.68;;;2.60;;
66567;SDS011;53422;49.296;6.900;2023-06-14T14:29:08;4.22;;;2.50;;
66567;SDS011;53422;49.296;6.900;2023-06-14T14:31:36;3.88;;;2.03;;
66567;SDS011;53422;49.296;6.900;2023-06-14T14:34:02;4.25;;;2.28;;
66567;SDS011;53422;49.296;6.900;2023-06-14T14:36:27;3.90;;;2.53;;
66567;SDS011;53422;49.296;6.900;2023-06-14T14:38:53;4.88;;;2.00;;
66567;SDS011;53422;49.296;6.900;2023-06-14T14:41:19;5.45;;;2.90;;
66567;SDS011;53422;49.296;6.900;2023-06-14T14:43:44;5.95;;;2.33;;
66567;SDS011;53422;49.296;6.900;2023-06-14T14:46:10;3.13;;;2.63;;
66567;SDS011;53422;49.296;6.900;2023-06-14T14:48:36;4.53;;;1.90;;
66567;SDS011;53422;49.296;6.900;2023-06-14T14:51:01;3.22;;;2.20;;
66567;SDS011;53422;49.296;6.900;2023-06-14T14:53:28;5.22;;;2.25;;
66567;SDS011;53422;49.296;6.900;2023-06-14T14:55:54;3.85;;;2.15;;
66567;SDS011;53422;49.296;6.900;2023-06-14T14:58:19;3.42;;;2.55;;
66567;SDS011;53422;49.296;6.900;2023-06-14T15:00:46;4.20;;;2.90;;
66567;SDS011;53422;49.296;6.900;2023-06-14T15:03:12;4.38;;;2.45;;
66567;SDS011;53422;49.296;6.900;2023-06-14T15:05:38;3.83;;;2.38;;
66567;SDS011;53422;49.296;6.900;2023-06-14T15:08:05;5.88;;;2.47;;